Time;durP1;ratioP1;P1;durP2;ratioP2;P2;SDS_P1;SDS_P2;PMS_P1;PMS_P2;Temp;Humidity;BMP_temperature;BMP_pressure;BME280_temperature;BME280_humidity;BME280_pressure;Samples;Min_cycle;Max_cycle;Signal;HPM_P1;HPM_P2
2023/01/13 00:01:07;;;;;;;30.33;5.65;;;9.10;99.90;;;;;;4961893;28;20398;-61
2023/01/13 00:03:33;;;;;;;25.65;5.00;;;9.00;99.90;;;;;;4972206;28;20081;-61
2023/01/13 00:05:59;;;;;;;30.25;5.78;;;9.00;99.90;;;;;;4957235;28;20046;-61
2023/01/13 00:08:25;;;;;;;31.27;6.63;;;9.00;99.90;;;;;;4944118;28;20042;-61
2023/01/13 00:10:51;;;;;;;26.50;5.88;;;9.00;99.90;;;;;;4958466;28;20188;-61
2023/01/13 00:13:25;;;;;;;25.15;5.82;;;8.90;99.90;;;;;;4954477;28;20193;-61
2023/01/13 00:16:04;;;;;;;31.75;7.18;;;8.90;99.90;;;;;;4993337;28;20509;-61
2023/01/13 00:18:30;;;;;;;38.35;5.90;;;8.90;99.90;;;;;;4957366;28;20753;-61
2023/01/13 00:21:05;;;;;;;32.22;6.40;;;8.80;99.90;;;;;;4972362;28;20049;-61
2023/01/13 00:23:33;;;;;;;35.95;7.78;;;8.80;99.90;;;;;;4961920;28;20046;-60
2023/01/13 00:26:02;;;;;;;42.85;7.78;;;8.80;99.90;;;;;;4959251;28;20505;-60
2023/01/13 00:28:28;;;;;;;32.63;6.68;;;8.80;99.90;;;;;;4956302;28;20069;-61
2023/01/13 00:30:57;;;;;;;31.45;6.63;;;8.80;99.90;;;;;;4971338;28;20340;-62
2023/01/13 00:35:58;;;;;;;31.83;5.75;;;8.80;99.90;;;;;;4955780;28;20148;-62
2023/01/13 00:38:24;;;;;;;34.72;6.70;;;8.70;99.90;;;;;;4945614;28;20133;-61
2023/01/13 00:41:21;;;;;;;33.25;6.65;;;8.70;99.90;;;;;;4967752;28;20064;-61
2023/01/13 00:43:47;;;;;;;36.60;7.65;;;8.70;99.90;;;;;;4942326;28;20145;-61
2023/01/13 00:46:15;;;;;;;36.42;7.15;;;8.70;99.90;;;;;;4947675;28;21343;-62
2023/01/13 00:48:41;;;;;;;36.25;7.72;;;8.70;99.90;;;;;;4940280;28;20441;-61
2023/01/13 00:51:17;;;;;;;37.10;6.78;;;8.70;99.90;;;;;;4941491;28;20047;-61
2023/01/13 00:53:45;;;;;;;42.50;7.68;;;8.70;99.90;;;;;;4927895;28;21827;-62
2023/01/13 00:56:20;;;;;;;28.65;6.85;;;8.60;99.90;;;;;;4963393;28;20269;-60
2023/01/13 00:58:46;;;;;;;40.30;6.72;;;8.60;99.90;;;;;;4946731;28;20129;-60
2023/01/13 01:01:15;;;;;;;38.42;7.40;;;8.60;99.90;;;;;;4948443;28;20405;-61
2023/01/13 01:03:41;;;;;;;34.30;6.45;;;8.60;99.90;;;;;;4943815;28;20135;-61
2023/01/13 01:06:11;;;;;;;45.50;7.78;;;8.60;99.90;;;;;;4931320;28;20074;-61
2023/01/13 01:08:37;;;;;;;37.50;6.97;;;8.50;99.90;;;;;;4944268;28;20051;-61
2023/01/13 01:11:09;;;;;;;32.10;7.95;;;8.50;99.90;;;;;;4947244;28;20198;-62
2023/01/13 01:13:35;;;;;;;31.60;7.22;;;8.50;99.90;;;;;;4941418;28;20065;-61
2023/01/13 01:16:10;;;;;;;41.80;8.32;;;8.50;99.90;;;;;;4943029;28;20125;-61
2023/01/13 01:18:37;;;;;;;41.97;7.30;;;8.50;99.90;;;;;;4945469;28;20050;-60
2023/01/13 01:21:04;;;;;;;30.92;6.85;;;8.30;99.90;;;;;;4927025;28;20398;-61
2023/01/13 01:23:31;;;;;;;39.35;8.00;;;8.40;99.90;;;;;;4945225;28;20201;-62
2023/01/13 01:26:15;;;;;;;37.50;6.32;;;8.40;99.90;;;;;;4940700;28;20046;-61
2023/01/13 01:28:42;;;;;;;36.33;7.55;;;8.40;99.90;;;;;;4926313;28;20043;-61
2023/01/13 01:31:20;;;;;;;30.35;6.65;;;8.50;99.90;;;;;;4929478;28;20098;-62
2023/01/13 01:33:46;;;;;;;38.40;6.93;;;8.40;99.90;;;;;;4944233;28;20608;-61
2023/01/13 01:36:14;;;;;;;38.80;6.63;;;8.40;99.90;;;;;;4960682;28;20049;-62
2023/01/13 01:38:40;;;;;;;46.60;8.82;;;8.40;99.90;;;;;;4947729;28;20566;-62
2023/01/13 01:41:06;;;;;;;35.92;7.35;;;8.40;99.90;;;;;;4947993;28;20049;-63
2023/01/13 01:44:01;;;;;;;33.30;6.32;;;8.40;99.90;;;;;;4954656;28;20499;-61
2023/01/13 01:46:43;;;;;;;32.72;6.57;;;8.40;99.90;;;;;;4933301;28;20034;-60
2023/01/13 01:49:26;;;;;;;35.83;7.07;;;8.40;99.90;;;;;;4946070;28;20159;-61
2023/01/13 01:52:05;;;;;;;42.15;6.93;;;8.40;99.90;;;;;;4947140;28;20074;-62
2023/01/13 01:54:37;;;;;;;37.55;7.05;;;8.40;99.90;;;;;;4928192;28;20486;-61
2023/01/13 01:57:03;;;;;;;43.47;7.70;;;8.40;99.90;;;;;;4946511;28;20051;-62
2023/01/13 01:59:31;;;;;;;26.38;6.10;;;8.40;99.90;;;;;;4945476;28;20735;-63
2023/01/13 02:01:57;;;;;;;35.72;6.82;;;8.40;99.90;;;;;;4960499;28;20054;-61
2023/01/13 02:04:28;;;;;;;35.05;6.75;;;8.40;99.90;;;;;;4931593;28;20085;-63
2023/01/13 02:06:55;;;;;;;30.88;6.13;;;8.40;99.90;;;;;;4931243;28;20055;-60
2023/01/13 02:09:23;;;;;;;36.85;7.97;;;8.40;99.90;;;;;;4950093;28;20042;-63
2023/01/13 02:14:34;;;;;;;35.28;6.25;;;8.50;99.90;;;;;;4943946;28;20785;-62
2023/01/13 02:17:05;;;;;;;36.00;7.07;;;8.50;99.90;;;;;;4948313;28;20070;-61
2023/01/13 02:19:50;;;;;;;33.38;7.40;;;8.50;99.90;;;;;;4943167;28;20059;-61
2023/01/13 02:23:00;;;;;;;23.52;5.57;;;8.50;99.90;;;;;;4946506;28;21190;-62
2023/01/13 02:25:32;;;;;;;38.30;7.15;;;8.60;99.90;;;;;;4934313;28;20771;-61
2023/01/13 02:28:20;;;;;;;36.97;7.32;;;8.50;99.90;;;;;;4926949;28;20568;-61
2023/01/13 02:33:53;;;;;;;51.55;8.38;;;8.50;99.90;;;;;;4943347;28;20127;-61
2023/01/13 02:36:57;;;;;;;41.40;7.97;;;8.50;99.90;;;;;;4959449;28;20412;-61
2023/01/13 02:39:25;;;;;;;37.88;6.25;;;8.50;99.90;;;;;;4941302;28;20081;-62
2023/01/13 02:45:20;;;;;;;41.47;6.88;;;8.50;99.90;;;;;;4946307;28;20457;-60
2023/01/13 02:47:55;;;;;;;44.05;7.10;;;8.50;99.90;;;;;;4940249;28;20059;-62
2023/01/13 02:50:33;;;;;;;40.35;7.25;;;8.50;99.90;;;;;;4945317;28;20449;-62
2023/01/13 02:53:07;;;;;;;41.20;8.73;;;8.50;99.90;;;;;;4944426;28;20050;-61
2023/01/13 02:55:45;;;;;;;41.85;8.18;;;8.50;99.90;;;;;;4943315;28;20047;-62
2023/01/13 02:58:15;;;;;;;36.33;7.53;;;8.50;99.90;;;;;;4959810;28;20078;-61
2023/01/13 03:00:46;;;;;;;50.20;6.97;;;8.50;99.90;;;;;;4948504;28;20743;-63
2023/01/13 03:03:12;;;;;;;40.53;6.63;;;8.50;99.90;;;;;;4943461;28;20074;-62
2023/01/13 03:05:40;;;;;;;40.58;7.05;;;8.50;99.90;;;;;;4930243;28;20045;-62
2023/01/13 03:08:16;;;;;;;45.95;8.48;;;8.50;99.90;;;;;;4943958;28;20485;-62
2023/01/13 03:10:49;;;;;;;36.42;7.32;;;8.60;99.90;;;;;;4945056;28;20043;-61
2023/01/13 03:13:40;;;;;;;37.08;6.90;;;8.60;99.90;;;;;;4943994;28;20046;-61
2023/01/13 03:16:11;;;;;;;39.90;7.60;;;8.60;99.90;;;;;;4946362;28;20204;-63
2023/01/13 03:18:55;;;;;;;36.45;6.50;;;8.60;99.90;;;;;;4945362;28;20043;-61
2023/01/13 03:21:26;;;;;;;31.95;5.85;;;8.60;99.90;;;;;;4944680;28;20042;-62
2023/01/13 03:23:52;;;;;;;35.28;6.03;;;8.70;99.90;;;;;;4942732;28;20789;-60
2023/01/13 03:26:27;;;;;;;29.45;5.55;;;8.70;99.90;;;;;;4942259;28;20042;-63
2023/01/13 03:29:06;;;;;;;28.63;5.55;;;8.70;99.90;;;;;;4927255;28;20070;-61
2023/01/13 03:31:36;;;;;;;34.25;7.10;;;8.70;99.90;;;;;;4942704;28;20146;-60
2023/01/13 03:34:19;;;;;;;34.47;7.13;;;8.70;99.90;;;;;;4943846;28;20066;-61
2023/01/13 03:36:49;;;;;;;33.05;5.82;;;8.70;99.90;;;;;;4944184;28;20061;-60
2023/01/13 03:39:20;;;;;;;35.45;5.88;;;8.70;99.90;;;;;;4943925;28;20066;-61
2023/01/13 03:41:56;;;;;;;31.13;6.55;;;8.60;99.90;;;;;;4958971;28;20486;-61
2023/01/13 03:44:42;;;;;;;34.53;6.60;;;8.60;99.90;;;;;;4944518;28;20057;-62
2023/01/13 03:47:29;;;;;;;36.92;6.78;;;8.70;99.90;;;;;;4942018;28;20115;-62
2023/01/13 03:50:06;;;;;;;32.70;6.20;;;8.70;99.90;;;;;;4943178;28;20077;-62
2023/01/13 03:52:37;;;;;;;35.88;6.32;;;8.60;99.90;;;;;;4947594;28;20557;-63
2023/01/13 03:55:12;;;;;;;34.30;5.38;;;8.60;99.90;;;;;;4939859;28;21278;-63
2023/01/13 03:58:01;;;;;;;40.28;6.55;;;8.60;99.90;;;;;;4941843;28;20045;-60
2023/01/13 04:00:36;;;;;;;40.10;6.68;;;8.60;99.90;;;;;;4926652;28;20046;-61
2023/01/13 04:03:14;;;;;;;33.10;7.75;;;8.50;99.90;;;;;;4927885;28;20753;-61
2023/01/13 04:05:46;;;;;;;38.72;6.07;;;8.50;99.90;;;;;;4950722;28;20510;-62
2023/01/13 04:08:28;;;;;;;32.25;6.28;;;8.60;99.90;;;;;;4943764;28;20114;-62
2023/01/13 04:11:08;;;;;;;37.10;6.95;;;8.50;99.90;;;;;;4931009;28;20050;-62
2023/01/13 04:13:38;;;;;;;39.00;6.70;;;8.60;99.90;;;;;;4931260;28;20051;-62
2023/01/13 04:16:06;;;;;;;37.17;6.18;;;8.60;99.90;;;;;;4945735;28;20548;-61
2023/01/13 04:18:32;;;;;;;27.83;6.55;;;8.50;99.90;;;;;;4946707;28;20042;-62
2023/01/13 04:20:59;;;;;;;36.30;6.32;;;8.60;99.90;;;;;;4963521;28;20087;-61
2023/01/13 04:23:29;;;;;;;41.38;6.65;;;8.60;99.90;;;;;;4942390;28;20054;-61
2023/01/13 04:25:55;;;;;;;37.60;7.93;;;8.60;99.90;;;;;;4950411;28;20203;-62
2023/01/13 04:28:22;;;;;;;31.25;6.88;;;8.70;99.90;;;;;;4944911;28;20157;-61
2023/01/13 04:30:48;;;;;;;37.15;7.35;;;8.70;99.90;;;;;;4948885;28;20134;-60
2023/01/13 04:33:15;;;;;;;31.75;5.60;;;8.70;99.90;;;;;;4944489;28;20121;-62
2023/01/13 04:35:42;;;;;;;32.67;6.35;;;8.70;99.90;;;;;;4950489;28;20038;-61
2023/01/13 04:38:14;;;;;;;31.92;6.72;;;8.70;99.90;;;;;;4945382;28;20046;-62
2023/01/13 04:40:41;;;;;;;28.27;5.57;;;8.80;99.90;;;;;;4949591;28;21522;-61
2023/01/13 04:43:07;;;;;;;30.85;6.15;;;8.80;99.90;;;;;;4960224;28;20051;-62
2023/01/13 04:45:33;;;;;;;31.45;6.18;;;8.80;99.90;;;;;;4944948;28;20450;-61
2023/01/13 04:47:59;;;;;;;25.35;5.75;;;8.80;99.90;;;;;;4950773;28;20046;-61
2023/01/13 04:50:28;;;;;;;35.92;6.03;;;8.80;99.90;;;;;;4946748;28;20039;-62
2023/01/13 04:52:54;;;;;;;31.60;4.93;;;8.80;99.90;;;;;;4945198;28;20046;-61
2023/01/13 04:55:22;;;;;;;26.33;5.43;;;8.80;99.90;;;;;;4945553;28;20051;-63
2023/01/13 04:57:48;;;;;;;30.50;5.40;;;8.80;99.90;;;;;;4967611;28;20050;-62
2023/01/13 05:00:16;;;;;;;25.60;6.03;;;8.80;99.90;;;;;;4944055;28;20043;-60
2023/01/13 05:02:42;;;;;;;24.17;5.15;;;8.80;99.90;;;;;;4945292;28;20544;-62
2023/01/13 05:05:08;;;;;;;26.08;5.20;;;8.80;99.90;;;;;;4949415;28;20040;-61
2023/01/13 05:07:34;;;;;;;35.60;5.32;;;8.70;99.90;;;;;;4948790;28;20357;-61
2023/01/13 05:10:00;;;;;;;26.17;5.00;;;8.70;99.90;;;;;;4942706;28;20544;-62
2023/01/13 05:18:02;;;;;;;29.83;6.30;;;8.80;99.90;;;;;;4945536;28;20042;-61
2023/01/13 05:20:28;;;;;;;26.70;4.93;;;8.80;99.90;;;;;;4949777;28;20043;-62
2023/01/13 05:25:39;;;;;;;;;;;8.80;99.90;;;;;;4946323;28;20498;-62
2023/01/13 05:28:06;;;;;;;25.45;4.63;;;8.80;99.90;;;;;;4925803;28;19929;-62
2023/01/13 05:30:36;;;;;;;31.48;6.53;;;8.80;99.90;;;;;;4943116;28;20549;-61
2023/01/13 05:33:02;;;;;;;26.00;5.65;;;8.80;99.90;;;;;;4960315;28;20458;-62
2023/01/13 05:35:28;;;;;;;33.38;6.00;;;8.80;99.90;;;;;;4944122;28;20123;-62
2023/01/13 05:37:54;;;;;;;26.35;4.78;;;8.80;99.90;;;;;;4949349;28;20104;-61
2023/01/13 05:43:18;;;;;;;28.10;5.22;;;8.80;99.90;;;;;;4942522;28;20051;-63
2023/01/13 05:45:48;;;;;;;23.67;6.35;;;8.80;99.90;;;;;;4942848;28;20050;-63
2023/01/13 05:48:14;;;;;;;22.67;4.78;;;8.80;99.90;;;;;;4941306;28;20527;-61
2023/01/13 05:50:39;;;;;;;24.98;4.63;;;8.80;99.90;;;;;;4950735;28;20053;-61
2023/01/13 05:53:05;;;;;;;22.33;4.85;;;8.80;99.90;;;;;;4958463;28;20046;-63
2023/01/13 05:55:31;;;;;;;30.70;4.60;;;8.80;99.90;;;;;;4923810;28;20070;-61
2023/01/13 05:57:57;;;;;;;25.50;5.18;;;8.80;99.90;;;;;;4943362;28;20046;-62
2023/01/13 06:00:23;;;;;;;24.38;5.72;;;8.80;99.90;;;;;;4945521;28;20049;-61
2023/01/13 06:02:48;;;;;;;24.92;4.80;;;8.80;99.90;;;;;;4948269;28;20039;-60
2023/01/13 06:05:14;;;;;;;24.38;4.70;;;8.70;99.90;;;;;;4959526;28;20303;-62
2023/01/13 06:07:40;;;;;;;33.72;5.60;;;8.70;99.90;;;;;;4942488;28;20043;-62
2023/01/13 06:10:07;;;;;;;23.83;4.45;;;8.70;99.90;;;;;;4941957;28;20054;-61
2023/01/13 06:12:32;;;;;;;26.50;5.05;;;8.60;99.90;;;;;;4943388;28;20122;-60
2023/01/13 06:14:58;;;;;;;22.13;4.57;;;8.70;99.90;;;;;;4926391;28;20125;-61
2023/01/13 06:17:24;;;;;;;21.35;4.10;;;8.70;99.90;;;;;;4939533;28;20185;-60
2023/01/13 06:19:50;;;;;;;25.10;4.93;;;8.70;99.90;;;;;;4941035;28;20046;-61
2023/01/13 06:22:25;;;;;;;28.27;5.32;;;8.60;99.90;;;;;;4943949;28;20041;-62
2023/01/13 06:24:52;;;;;;;23.05;4.55;;;8.60;99.90;;;;;;4944862;28;20457;-62
2023/01/13 06:27:20;;;;;;;26.27;4.82;;;8.60;99.90;;;;;;4940241;28;20047;-61
2023/01/13 06:29:45;;;;;;;31.08;5.65;;;8.60;99.90;;;;;;4926110;28;20050;-61
2023/01/13 06:32:18;;;;;;;23.17;4.35;;;8.60;99.90;;;;;;4946627;28;20486;-60
2023/01/13 06:34:50;;;;;;;25.00;5.18;;;8.60;99.90;;;;;;4952421;28;20047;-62
2023/01/13 06:37:20;;;;;;;28.02;4.75;;;8.60;99.90;;;;;;5028243;22;20065;-79
2023/01/13 06:39:47;;;;;;;25.65;5.13;;;8.60;99.90;;;;;;4980416;28;20041;-81
2023/01/13 06:45:16;;;;;;;19.35;4.00;;;8.50;99.90;;;;;;4994080;28;20046;-80
2023/01/13 06:51:35;;;;;;;20.17;4.97;;;8.30;99.90;;;;;;4989765;28;20113;-81
2023/01/13 06:54:18;;;;;;;26.60;4.68;;;8.30;99.90;;;;;;4972969;28;20049;-80
2023/01/13 06:56:46;;;;;;;22.60;4.82;;;8.20;99.90;;;;;;4980139;28;20038;-80
2023/01/13 06:59:15;;;;;;;39.00;5.03;;;8.20;99.90;;;;;;4972412;28;20100;-78
2023/01/13 07:01:50;;;;;;;18.52;4.25;;;8.10;99.90;;;;;;4978505;28;20038;-81
2023/01/13 07:04:17;;;;;;;27.33;6.70;;;8.10;99.90;;;;;;4974359;28;20049;-79
2023/01/13 07:06:43;;;;;;;28.70;4.90;;;8.10;99.90;;;;;;4961059;28;20044;-80
2023/01/13 07:09:09;;;;;;;27.73;5.38;;;8.10;99.90;;;;;;4958365;28;20041;-80
2023/01/13 07:11:35;;;;;;;23.73;5.75;;;8.10;99.90;;;;;;4975855;28;20539;-80
2023/01/13 07:16:45;;;;;;;31.10;6.20;;;8.10;99.90;;;;;;4987517;28;20917;-80
2023/01/13 07:19:11;;;;;;;25.67;4.90;;;8.00;99.90;;;;;;4957680;28;20050;-80
2023/01/13 07:21:37;;;;;;;21.23;4.45;;;8.10;99.90;;;;;;4957446;28;21021;-79
2023/01/13 07:24:02;;;;;;;25.35;4.70;;;8.10;99.90;;;;;;4973169;28;20057;-81
2023/01/13 07:26:28;;;;;;;22.95;4.93;;;8.10;99.90;;;;;;4958170;28;20085;-84
2023/01/13 07:28:54;;;;;;;23.60;4.30;;;8.10;99.90;;;;;;4960456;28;20048;-81
2023/01/13 07:31:20;;;;;;;31.70;4.05;;;8.10;99.90;;;;;;4972581;28;20108;-82
2023/01/13 07:33:47;;;;;;;19.55;3.63;;;8.10;99.90;;;;;;4968067;28;20755;-81
2023/01/13 07:36:13;;;;;;;23.52;5.25;;;8.10;99.90;;;;;;4967843;28;20060;-81
2023/01/13 07:38:43;;;;;;;28.63;5.72;;;8.20;99.90;;;;;;4977708;28;20037;-81
2023/01/13 07:43:56;;;;;;;29.83;5.55;;;8.20;99.90;;;;;;4972811;28;20611;-80
2023/01/13 07:46:22;;;;;;;21.92;4.45;;;8.20;99.90;;;;;;4973311;28;20049;-80
2023/01/13 07:48:48;;;;;;;30.75;5.32;;;8.20;99.90;;;;;;4978145;28;20030;-82
2023/01/13 07:51:13;;;;;;;29.35;4.68;;;8.30;99.90;;;;;;4976032;28;20113;-78
2023/01/13 07:53:39;;;;;;;31.98;5.32;;;8.30;99.90;;;;;;4988471;28;20045;-80
2023/01/13 07:56:06;;;;;;;26.60;4.80;;;8.30;99.90;;;;;;4960676;28;20040;-78
2023/01/13 07:58:34;;;;;;;28.63;5.43;;;8.30;99.90;;;;;;4960119;28;20069;-78
2023/01/13 08:01:12;;;;;;;29.98;5.72;;;8.30;99.90;;;;;;4980525;28;20046;-82
2023/01/13 08:03:39;;;;;;;26.88;5.03;;;8.40;99.90;;;;;;4944310;28;20050;-78
2023/01/13 08:06:06;;;;;;;25.63;4.07;;;8.40;99.90;;;;;;4978694;28;20038;-79
2023/01/13 08:08:35;;;;;;;29.52;6.03;;;8.40;99.90;;;;;;4971671;28;20037;-79
2023/01/13 08:11:02;;;;;;;26.17;5.65;;;8.40;99.90;;;;;;4971842;28;20045;-79
2023/01/13 08:13:28;;;;;;;28.83;6.05;;;8.40;99.90;;;;;;4970473;28;20039;-81
2023/01/13 08:16:06;;;;;;;27.10;6.10;;;8.50;99.90;;;;;;4968724;28;20038;-80
2023/01/13 08:18:33;;;;;;;28.92;5.40;;;8.50;99.90;;;;;;4958798;28;20167;-79
2023/01/13 08:21:05;;;;;;;26.52;4.85;;;8.50;99.90;;;;;;4949744;28;20064;-84
2023/01/13 08:23:32;;;;;;;26.98;5.63;;;8.50;99.90;;;;;;4983744;28;20057;-79
2023/01/13 08:26:07;;;;;;;30.35;5.07;;;8.60;99.90;;;;;;4977151;28;20042;-80
2023/01/13 08:28:33;;;;;;;23.65;5.35;;;8.50;99.90;;;;;;4983803;28;20406;-80
2023/01/13 08:31:04;;;;;;;33.78;6.85;;;8.60;99.90;;;;;;4972517;28;20046;-80
2023/01/13 08:33:31;;;;;;;26.00;4.47;;;8.60;99.90;;;;;;4986614;28;20053;-79
2023/01/13 08:35:57;;;;;;;27.42;6.82;;;8.60;99.90;;;;;;4974210;28;20038;-82
2023/01/13 08:38:24;;;;;;;22.42;5.32;;;8.60;99.90;;;;;;4979254;28;20077;-80
2023/01/13 08:40:50;;;;;;;31.20;5.45;;;8.50;99.90;;;;;;4996758;28;20064;-81
2023/01/13 08:43:15;;;;;;;27.58;4.88;;;8.60;99.90;;;;;;4975656;28;20104;-80
2023/01/13 08:45:41;;;;;;;21.85;4.80;;;8.60;99.90;;;;;;4985750;28;20292;-81
2023/01/13 08:48:10;;;;;;;28.40;5.75;;;8.50;99.90;;;;;;4975184;28;20402;-80
2023/01/13 08:50:36;;;;;;;25.45;4.18;;;8.50;99.90;;;;;;4974690;28;20042;-80
2023/01/13 08:53:01;;;;;;;23.52;4.43;;;8.40;99.90;;;;;;4969438;28;20045;-82
2023/01/13 08:55:27;;;;;;;23.67;5.13;;;8.30;99.90;;;;;;4988459;28;20122;-81
2023/01/13 08:57:53;;;;;;;24.33;5.55;;;8.30;99.90;;;;;;4988082;28;20096;-79
2023/01/13 09:00:19;;;;;;;25.60;4.72;;;8.30;99.90;;;;;;4973239;28;20513;-77
2023/01/13 09:02:44;;;;;;;24.00;4.70;;;8.20;99.90;;;;;;4969043;28;20405;-80
2023/01/13 09:05:10;;;;;;;19.58;3.70;;;8.20;99.90;;;;;;4974243;28;20150;-79
2023/01/13 09:07:37;;;;;;;35.00;5.72;;;8.20;99.90;;;;;;4968551;28;20045;-80
2023/01/13 09:10:05;;;;;;;31.20;5.05;;;8.10;99.90;;;;;;4981984;28;20046;-81
2023/01/13 09:15:17;;;;;;;;;;;8.10;99.90;;;;;;5003255;28;20045;-80
2023/01/13 09:17:43;;;;;;;32.42;5.65;;;8.10;99.90;;;;;;4969348;28;19921;-78
2023/01/13 09:20:11;;;;;;;28.98;5.38;;;8.10;99.90;;;;;;4970544;28;20057;-79
2023/01/13 09:22:38;;;;;;;33.05;5.93;;;8.10;99.90;;;;;;4975470;28;20440;-81
2023/01/13 09:25:06;;;;;;;25.48;4.82;;;8.00;99.90;;;;;;4989075;28;20038;-81
2023/01/13 09:27:32;;;;;;;26.00;4.97;;;8.00;99.90;;;;;;4988335;28;20490;-79
2023/01/13 09:29:58;;;;;;;28.70;5.82;;;8.00;99.90;;;;;;4957027;28;20038;-81
2023/01/13 09:32:26;;;;;;;33.22;6.70;;;8.00;99.90;;;;;;4967720;28;20042;-80
2023/01/13 09:35:01;;;;;;;32.83;6.35;;;8.00;99.90;;;;;;4969963;28;20200;-82
2023/01/13 09:37:37;;;;;;;24.95;5.10;;;8.00;99.90;;;;;;4974332;28;20048;-79
2023/01/13 09:40:16;;;;;;;27.88;5.57;;;8.00;99.90;;;;;;4984784;28;20132;-79
2023/01/13 09:45:54;;;;;;;24.92;5.38;;;8.00;99.90;;;;;;4985957;28;20112;-83
2023/01/13 09:48:56;;;;;;;31.00;6.05;;;7.90;99.90;;;;;;4989097;28;20141;-82
2023/01/13 09:51:30;;;;;;;27.42;5.78;;;8.00;99.90;;;;;;4987057;28;20303;-82
2023/01/13 09:54:05;;;;;;;31.38;4.38;;;8.10;99.90;;;;;;5000586;28;20655;-82
2023/01/13 09:56:31;;;;;;;32.20;5.72;;;8.00;99.90;;;;;;4967541;28;20045;-80
2023/01/13 09:58:59;;;;;;;23.67;3.90;;;8.00;99.90;;;;;;4983599;28;20409;-83
2023/01/13 10:01:50;;;;;;;28.05;4.75;;;8.10;99.90;;;;;;5003369;28;20064;-81
2023/01/13 10:04:41;;;;;;;31.65;4.32;;;8.10;99.90;;;;;;4987633;28;20042;-82
2023/01/13 10:07:13;;;;;;;23.88;5.57;;;8.20;99.90;;;;;;4989519;28;20038;-80
2023/01/13 10:10:37;;;;;;;23.27;4.53;;;8.20;99.90;;;;;;4963381;28;20122;-80
2023/01/13 10:13:32;;;;;;;25.50;4.70;;;8.20;99.90;;;;;;4947932;28;20214;-82
2023/01/13 10:16:23;;;;;;;24.33;4.88;;;7.80;99.90;;;;;;4998732;28;20034;-79
2023/01/13 10:19:13;;;;;;;23.63;4.55;;;8.30;99.90;;;;;;4986755;28;20038;-82
2023/01/13 10:22:25;;;;;;;23.80;3.88;;;8.30;99.90;;;;;;4971542;28;20042;-81
2023/01/13 10:27:38;;;;;;;15.25;3.97;;;8.40;99.90;;;;;;5025449;22;20037;-57
2023/01/13 10:30:11;;;;;;;24.52;4.70;;;8.40;99.90;;;;;;5012384;28;20607;-59
2023/01/13 10:32:41;;;;;;;24.40;5.38;;;8.40;99.90;;;;;;5015205;28;20057;-57
2023/01/13 10:35:07;;;;;;;21.42;4.35;;;8.40;99.90;;;;;;5020804;28;20451;-59
2023/01/13 10:37:33;;;;;;;24.63;4.05;;;8.40;99.90;;;;;;5010584;28;20111;-58
2023/01/13 10:40:01;;;;;;;22.52;4.38;;;8.40;99.90;;;;;;5011328;28;20041;-58
2023/01/13 10:42:27;;;;;;;20.90;4.05;;;8.50;99.90;;;;;;4980920;28;20072;-57
2023/01/13 10:44:58;;;;;;;18.75;3.50;;;8.50;99.90;;;;;;5016638;28;20474;-58
2023/01/13 10:47:30;;;;;;;29.83;5.03;;;8.50;99.90;;;;;;4994944;28;20053;-56
2023/01/13 10:50:25;;;;;;;26.17;4.82;;;8.50;99.90;;;;;;5013598;28;20045;-58
2023/01/13 10:53:15;;;;;;;21.45;4.28;;;8.50;99.90;;;;;;4990993;28;20069;-59
2023/01/13 10:55:41;;;;;;;22.27;4.47;;;8.50;99.90;;;;;;5010527;28;20071;-59
2023/01/13 10:58:18;;;;;;;25.58;4.15;;;8.50;99.90;;;;;;4973457;28;20045;-59
2023/01/13 11:00:44;;;;;;;19.38;3.80;;;8.60;99.90;;;;;;5014852;28;20041;-59
2023/01/13 11:03:21;;;;;;;25.23;3.63;;;8.70;99.90;;;;;;4996982;28;21794;-57
2023/01/13 11:05:55;;;;;;;22.42;4.90;;;8.90;99.90;;;;;;4995314;28;20519;-59
2023/01/13 11:08:27;;;;;;;23.92;4.40;;;8.70;99.90;;;;;;5012847;28;20125;-58
2023/01/13 11:10:56;;;;;;;31.20;5.38;;;8.70;99.90;;;;;;5020883;28;20037;-57
2023/01/13 11:14:31;;;;;;;25.80;5.25;;;8.70;99.90;;;;;;5020130;28;20120;-59
2023/01/13 11:16:24;;;;;;;18.10;4.68;;;8.80;99.90;;;;;;5021667;28;20523;-58
2023/01/13 11:19:30;;;;;;;18.77;3.40;;;8.90;99.90;;;;;;5016557;28;20079;-58
2023/01/13 11:22:05;;;;;;;14.80;3.60;;;8.90;99.90;;;;;;5001161;28;20054;-58
2023/01/13 11:25:00;;;;;;;14.68;3.40;;;8.90;99.90;;;;;;5018063;28;20037;-57
2023/01/13 11:27:38;;;;;;;22.05;4.38;;;8.90;99.90;;;;;;5005700;28;20050;-58
2023/01/13 11:30:18;;;;;;;21.42;3.92;;;8.90;99.90;;;;;;5019502;28;20037;-59
2023/01/13 11:33:08;;;;;;;18.58;3.83;;;9.00;99.90;;;;;;5016468;28;20064;-58
2023/01/13 11:35:41;;;;;;;16.60;3.95;;;9.00;99.90;;;;;;5017079;28;20045;-57
2023/01/13 11:38:22;;;;;;;23.87;4.67;;;9.00;99.90;;;;;;5000632;28;20096;-56
2023/01/13 11:40:49;;;;;;;22.30;4.35;;;9.00;99.90;;;;;;5021789;28;20787;-57
2023/01/13 11:43:27;;;;;;;24.05;3.78;;;9.00;99.90;;;;;;5000108;28;20034;-57
2023/01/13 11:45:57;;;;;;;19.17;3.58;;;9.00;99.90;;;;;;4997057;28;20136;-57
2023/01/13 11:48:26;;;;;;;19.63;3.70;;;9.00;99.90;;;;;;5010495;28;25597;-58
2023/01/13 11:51:13;;;;;;;19.25;3.92;;;9.00;99.90;;;;;;5000698;28;20435;-58
2023/01/13 11:54:05;;;;;;;19.40;3.85;;;9.00;99.90;;;;;;5015553;28;20120;-56
2023/01/13 11:56:37;;;;;;;18.00;3.83;;;9.00;99.90;;;;;;4998274;28;20037;-57
2023/01/13 11:59:14;;;;;;;20.55;3.33;;;9.10;99.90;;;;;;5020949;28;20064;-56
2023/01/13 12:01:59;;;;;;;18.23;3.70;;;9.20;99.90;;;;;;5018845;28;20041;-57
2023/01/13 12:05:03;;;;;;;20.35;4.13;;;9.30;99.90;;;;;;5019564;28;20053;-58
2023/01/13 12:07:41;;;;;;;18.60;3.45;;;9.30;99.90;;;;;;5022113;28;20361;-57
2023/01/13 12:10:27;;;;;;;29.77;5.57;;;9.30;99.90;;;;;;5019604;28;20058;-59
2023/01/13 12:13:08;;;;;;;18.02;3.75;;;9.30;99.90;;;;;;5006737;28;20080;-59
2023/01/13 12:15:49;;;;;;;21.52;3.95;;;9.30;99.90;;;;;;5020321;28;20038;-59
2023/01/13 12:18:24;;;;;;;20.52;4.25;;;9.40;99.90;;;;;;5019270;28;20138;-59
2023/01/13 12:21:07;;;;;;;19.38;3.65;;;9.40;99.90;;;;;;5002827;28;20508;-59
2023/01/13 12:23:37;;;;;;;20.52;3.75;;;9.40;99.90;;;;;;5018094;28;20048;-58
2023/01/13 12:26:12;;;;;;;18.42;3.72;;;9.40;99.90;;;;;;5002074;28;20445;-58
2023/01/13 12:29:04;;;;;;;21.20;4.15;;;9.30;99.90;;;;;;5004189;28;20041;-58
2023/01/13 12:31:33;;;;;;;17.75;3.60;;;9.20;99.90;;;;;;4995469;28;20132;-59
2023/01/13 12:34:09;;;;;;;18.98;3.97;;;9.30;99.90;;;;;;5020875;28;21824;-57
2023/01/13 12:37:02;;;;;;;19.88;3.45;;;9.30;99.90;;;;;;5020496;28;20042;-60
2023/01/13 12:39:47;;;;;;;20.08;3.50;;;9.40;99.90;;;;;;5014119;28;20044;-60
2023/01/13 12:45:33;;;;;;;14.10;2.97;;;9.30;99.90;;;;;;5022093;28;20054;-57
2023/01/13 12:48:00;;;;;;;21.83;5.18;;;9.30;99.90;;;;;;5019781;28;20034;-57
2023/01/13 12:50:25;;;;;;;18.33;3.38;;;9.30;99.90;;;;;;5018230;28;20037;-58
2023/01/13 12:53:29;;;;;;;20.27;3.80;;;9.30;99.90;;;;;;5002665;28;20469;-60
2023/01/13 12:56:27;;;;;;;19.38;4.15;;;9.40;99.90;;;;;;5002014;28;20444;-57
2023/01/13 12:59:16;;;;;;;18.35;3.13;;;9.40;99.90;;;;;;5013384;28;20053;-57
2023/01/13 13:01:43;;;;;;;16.73;3.50;;;9.40;99.90;;;;;;4995063;28;20049;-59
2023/01/13 13:04:15;;;;;;;16.98;3.10;;;9.30;99.90;;;;;;5004385;28;20511;-57
2023/01/13 13:06:45;;;;;;;12.70;2.75;;;9.30;99.90;;;;;;5013948;28;20695;-56
2023/01/13 13:09:26;;;;;;;18.83;4.38;;;9.30;99.90;;;;;;5000835;28;20405;-57
2023/01/13 13:14:38;;;;;;;16.55;3.13;;;9.20;99.90;;;;;;5020841;28;20408;-57
2023/01/13 13:17:27;;;;;;;18.33;3.67;;;9.30;99.90;;;;;;5002103;28;20048;-56
2023/01/13 13:19:57;;;;;;;14.38;3.00;;;9.30;99.90;;;;;;5019332;28;20125;-59
2023/01/13 13:22:26;;;;;;;16.08;2.95;;;9.30;99.90;;;;;;5020627;28;20065;-55
2023/01/13 13:24:54;;;;;;;16.33;3.80;;;9.20;99.90;;;;;;4992931;28;20092;-58
2023/01/13 13:27:26;;;;;;;23.27;3.60;;;9.20;99.90;;;;;;5002703;28;20042;-58
2023/01/13 13:30:00;;;;;;;20.08;3.33;;;9.30;99.90;;;;;;5014576;28;20184;-60
2023/01/13 13:32:57;;;;;;;21.10;3.13;;;9.30;99.90;;;;;;4992560;28;20114;-59
2023/01/13 13:36:17;;;;;;;18.95;3.00;;;9.30;99.90;;;;;;5019628;28;20458;-59
2023/01/13 13:47:10;;;;;;;14.77;3.40;;;9.30;99.90;;;;;;5009865;28;20899;-57
2023/01/13 13:49:43;;;;;;;14.98;3.28;;;9.30;99.90;;;;;;4997736;28;20050;-58
2023/01/13 13:52:28;;;;;;;14.73;2.50;;;9.30;99.90;;;;;;5022395;28;20071;-57
2023/01/13 13:55:04;;;;;;;14.45;2.90;;;9.30;99.90;;;;;;5010732;28;20045;-58
2023/01/13 13:57:37;;;;;;;19.67;3.95;;;9.30;99.90;;;;;;5025682;28;20060;-58
2023/01/13 14:00:29;;;;;;;22.75;3.50;;;9.30;99.90;;;;;;5025441;28;20158;-58
2023/01/13 14:03:02;;;;;;;15.90;3.92;;;9.20;99.90;;;;;;5017058;28;20061;-57
2023/01/13 14:05:31;;;;;;;16.52;4.18;;;9.20;99.90;;;;;;4996944;28;20103;-58
2023/01/13 14:08:08;;;;;;;17.27;3.40;;;9.10;99.90;;;;;;5017992;28;20041;-58
2023/01/13 14:10:37;;;;;;;19.83;3.55;;;9.10;99.90;;;;;;4980222;28;20092;-58
2023/01/13 14:13:19;;;;;;;20.05;3.45;;;9.10;99.90;;;;;;5021733;28;20063;-58
2023/01/13 14:15:46;;;;;;;22.02;3.72;;;9.10;99.90;;;;;;5011620;28;20845;-58